ADDS METAR Data INFO
IDs: Format: Raw Decoded Include TAF

Data at: 2326 UTC 19 Oct 2017

KF17 192315Z AUTO 00000KT 10SM CLR 25/15 A3013 RMK AO2 T02500151
KF17 192255Z AUTO 00000KT 10SM CLR 26/15 A3012 RMK AO2 T02580148
KF17 192235Z AUTO 10004KT 10SM CLR 26/14 A3012 RMK AO2 T02640143
KF17 192215Z AUTO 10006KT 10SM CLR 27/15 A3012 RMK AO2 T02710146
KF17 192155Z AUTO 10008KT 10SM CLR 28/15 A3013 RMK AO2 T02750154
KF17 192135Z AUTO 08003KT 10SM CLR 27/16 A3013 RMK AO2 T02700161
KF17 192115Z AUTO 09005KT 10SM CLR 27/15 A3013 RMK AO2 T02710151
KF17 192055Z AUTO 07005KT 10SM CLR 27/15 A3013 RMK AO2 T02740152
KF17 192035Z AUTO 10006KT 10SM CLR 27/15 A3014 RMK AO2 T02720151
KF17 192015Z AUTO 00000KT 10SM CLR 28/16 A3014 RMK AO2 T02750155
KF17 191955Z AUTO 12003KT 10SM CLR 27/15 A3015 RMK AO2 T02690154
KF17 191935Z AUTO 05006KT 010V070 10SM CLR 28/16 A3015 RMK AO2 T02750157
KF17 191915Z AUTO 10003KT 10SM SCT036 27/16 A3016 RMK AO2 T02660157
KF17 191855Z AUTO 09006KT 10SM SCT036 26/16 A3017 RMK AO2 T02640157
KF17 191835Z AUTO 06006KT 10SM SCT034 26/16 A3018 RMK AO2 T02630163
KF17 191815Z AUTO 05004KT 10SM OVC034 26/16 A3019 RMK AO2 T02630161
KF17 191755Z AUTO 00000KT 10SM OVC032 26/17 A3020 RMK AO2 T02600165 10262 20118
KF17 191735Z AUTO 11006KT 10SM BKN032 26/17 A3020 RMK AO2 T02590169
KF17 191715Z AUTO 06004KT 10SM CLR 26/17 A3021 RMK AO2 T02570174
KF17 191655Z AUTO 00000KT 10SM CLR 25/17 A3022 RMK AO2 T02460173
KF17 191635Z AUTO 13003KT 10SM CLR 23/18 A3022 RMK AO2 T02340175
KF17 191615Z AUTO 07003KT 10SM CLR 24/18 A3023 RMK AO2 T02370175
KF17 191555Z AUTO 09003KT 10SM CLR 22/18 A3023 RMK AO2 T02240175
KF17 191535Z AUTO 00000KT 10SM CLR 21/18 A3023 RMK AO2 T02110175
KF17 191515Z AUTO 10003KT 10SM CLR 20/17 A3023 RMK AO2 T02020172
KF17 191415Z AUTO 00000KT 10SM CLR 17/16 A3022 RMK AO2 T01680158
KF17 191355Z AUTO 00000KT 10SM SCT002 16/15 A3022 RMK AO2 T01590151
KF17 191335Z AUTO 00000KT 3SM BR OVC002 15/14 A3021 RMK AO2 T01470140
KF17 191315Z AUTO 00000KT 4SM BR BKN002 OVC005 14/13 A3020 RMK AO2 T01350128
KF17 191255Z AUTO 00000KT 7SM OVC002 12/12 A3020 RMK AO2 T01230116
KF17 191235Z AUTO 00000KT 1/2SM FG OVC002 12/11 A3019 RMK AO2 T01190112
KF17 191215Z AUTO 00000KT 1SM BR OVC002 12/11 A3019 RMK AO2 T01210114
KF17 191155Z AUTO 00000KT 10SM SCT002 12/11 A3018 RMK AO2 T01200113 10136 20118
KF17 191135Z AUTO 00000KT 10SM SCT002 12/11 A3018 RMK AO2 T01180110
KF17 191115Z AUTO 00000KT 10SM CLR 12/11 A3018 RMK AO2 T01210114
KF17 191055Z AUTO 00000KT 10SM CLR 12/11 A3017 RMK AO2 T01200112
KF17 191035Z AUTO 34003KT 10SM SCT003 12/11 A3016 RMK AO2 T01210114
KF17 191015Z AUTO 00000KT 10SM SCT003 13/12 A3016 RMK AO2 T01250115
KF17 190955Z AUTO 00000KT 10SM CLR 12/12 A3015 RMK AO2 T01240116
KF17 190935Z AUTO 00000KT 10SM SCT003 13/12 A3015 RMK AO2 T01250117
KF17 190915Z AUTO 00000KT 10SM SCT003 13/12 A3015 RMK AO2 T01250118
KF17 190855Z AUTO 00000KT 10SM SCT003 13/12 A3015 RMK AO2 T01250116
KF17 190835Z AUTO 00000KT 10SM CLR 13/12 A3016 RMK AO2 T01270117
KF17 190815Z AUTO 00000KT 10SM CLR 13/12 A3015 RMK AO2 T01270120
KF17 190755Z AUTO 00000KT 10SM CLR 13/12 A3016 RMK AO2 T01280121
KF17 190735Z AUTO 00000KT 10SM CLR 13/12 A3015 RMK AO2 T01300122
KF17 190715Z AUTO 00000KT 10SM CLR 13/13 A3015 RMK AO2 T01320125
KF17 190655Z AUTO 00000KT 10SM CLR 14/13 A3015 RMK AO2 T01350127
KF17 190635Z AUTO 00000KT 10SM CLR 14/13 A3015 RMK AO2 T01350127
KF17 190615Z AUTO 00000KT 10SM CLR 13/13 A3014 RMK AO2 T01330126
KF17 190555Z AUTO 00000KT 10SM CLR 14/13 A3015 RMK AO2 T01350128 10226 20135 402850077
KF17 190535Z AUTO 00000KT 10SM CLR 14/13 A3015 RMK AO2 T01380131
KF17 190515Z AUTO 00000KT 10SM CLR 14/13 A3015 RMK AO2 T01410133
KF17 190455Z AUTO 00000KT 10SM CLR 14/14 A3016 RMK AO2 T01420135
KF17 190435Z AUTO 00000KT 10SM CLR 15/14 A3016 RMK AO2 T01470137
KF17 190415Z AUTO 00000KT 10SM CLR 15/14 A3016 RMK AO2 T01470140
KF17 190355Z AUTO 00000KT 10SM CLR 15/14 A3016 RMK AO2 T01510139
KF17 190335Z AUTO 00000KT 10SM CLR 15/14 A3016 RMK AO2 T01510144
KF17 190315Z AUTO 00000KT 10SM CLR 16/14 A3016 RMK AO2 T01560144
KF17 190255Z AUTO 00000KT 10SM CLR 16/15 A3016 RMK AO2 T01600145
KF17 190235Z AUTO 00000KT 10SM CLR 16/14 A3016 RMK AO2 T01600141
KF17 190215Z AUTO 02007KT 10SM CLR 17/15 A3016 RMK AO2 T01660145
KF17 190155Z AUTO 00000KT 10SM CLR 17/15 A3016 RMK AO2 T01700149
KF17 190135Z AUTO 00000KT 10SM CLR 18/16 A3016 RMK AO2 T01760155
KF17 190115Z AUTO 00000KT 10SM CLR 18/16 A3016 RMK AO2 T01800156
KF17 190055Z AUTO 00000KT 10SM CLR 19/15 A3015 RMK AO2 T01900153
KF17 190035Z AUTO 00000KT 10SM CLR 19/16 A3015 RMK AO2 T01940155
KF17 190015Z AUTO 00000KT 10SM CLR 21/16 A3015 RMK AO2 T02070155
KF17 182355Z AUTO 00000KT 10SM CLR 23/16 A3014 RMK AO2 T02270155 10285 20227
KF17 182335Z AUTO 00000KT 10SM CLR 24/15 A3013 RMK AO2 T02420152
KF17 182315Z AUTO 00000KT 10SM CLR 25/15 A3013 RMK AO2 T02530153
KF17 182255Z AUTO 00000KT 10SM CLR 27/15 A3013 RMK AO2 T02660152
KF17 182235Z AUTO 04005KT 10SM CLR 27/15 A3013 RMK AO2 T02710149
KF17 182215Z AUTO 07004KT 10SM CLR 28/15 A3013 RMK AO2 T02760147
KF17 182155Z AUTO 09003KT 10SM CLR 28/15 A3013 RMK AO2 T02800147
KF17 182135Z AUTO 14004KT 10SM CLR 28/13 A3012 RMK AO2 T02810130
KF17 182115Z AUTO 12005KT 10SM CLR 28/13 A3013 RMK AO2 T02830130
KF17 182055Z AUTO 00000KT 10SM CLR 28/14 A3013 RMK AO2 T02830136
KF17 182035Z AUTO 15004KT 10SM CLR 28/14 A3013 RMK AO2 T02830136
KF17 182015Z AUTO 00000KT 10SM CLR 28/13 A3013 RMK AO2 T02790134
KF17 181955Z AUTO 12004KT 10SM CLR 28/13 A3014 RMK AO2 T02800134
KF17 181935Z AUTO 14004KT 10SM CLR 28/13 A3015 RMK AO2 T02770133
KF17 181915Z AUTO 00000KT 10SM CLR 27/13 A3015 RMK AO2 T02730131
KF17 181855Z AUTO 08003KT 10SM CLR 27/13 A3017 RMK AO2 T02700132
KF17 181835Z AUTO 00000KT 10SM CLR 27/13 A3018 RMK AO2 T02660127
KF17 181815Z AUTO 15004KT 10SM CLR 26/13 A3019 RMK AO2 T02610129
KF17 181755Z AUTO 20003KT 10SM CLR 26/13 A3020 RMK AO2 T02610126 10261 20077
KF17 181735Z AUTO 00000KT 10SM CLR 25/13 A3020 RMK AO2 T02510133
KF17 181715Z AUTO 00000KT 10SM CLR 24/14 A3021 RMK AO2 T02430140
KF17 181655Z AUTO 00000KT 10SM CLR 24/13 A3022 RMK AO2 T02440134
KF17 181635Z AUTO 20003KT 10SM CLR 24/14 A3022 RMK AO2 T02410138
KF17 181615Z AUTO 00000KT 10SM CLR 23/14 A3022 RMK AO2 T02320143
KF17 181555Z AUTO 15003KT 10SM CLR 22/15 A3022 RMK AO2 T02200146
KF17 181535Z AUTO 11004KT 10SM CLR 21/14 A3023 RMK AO2 T02090143
KF17 181515Z AUTO 11003KT 10SM CLR 19/14 A3023 RMK AO2 T01930141
KF17 181455Z AUTO 13003KT 10SM CLR 18/14 A3023 RMK AO2 T01820137
KF17 181435Z AUTO 00000KT 10SM CLR 17/13 A3023 RMK AO2 T01670134
KF17 181415Z AUTO 00000KT 10SM CLR 15/12 A3022 RMK AO2 T01480124
KF17 181355Z AUTO 00000KT 10SM CLR 13/11 A3021 RMK AO2 T01300114
KF17 181335Z AUTO 00000KT 10SM CLR 11/10 A3020 RMK AO2 T01100097
KF17 181315Z AUTO 00000KT 10SM CLR 10/09 A3020 RMK AO2 T00950085
KF17 181255Z AUTO 35003KT 10SM CLR 08/08 A3020 RMK AO2 T00820075
KF17 181235Z AUTO 36003KT 10SM CLR 08/07 A3020 RMK AO2 T00780071
KF17 181215Z AUTO 00000KT 10SM CLR 08/07 A3019 RMK AO2 T00800072
KF17 181155Z AUTO 00000KT 10SM CLR 08/07 A3019 RMK AO2 T00790071 10100 20078
KF17 181130Z AUTO 00000KT 10SM CLR 08/07 A3019 RMK AO2 T00800072